createdAt,value
2022-11-01T19:00:16.165Z,97929.66
2022-11-01T19:02:43.186Z,97937.13
2022-11-01T19:05:16.809Z,97937.91
2022-11-01T19:08:09.614Z,97932.91
2022-11-01T19:10:31.267Z,97930.16
2022-11-01T19:12:58.442Z,97930.78
2022-11-01T19:15:27.569Z,97936.41
2022-11-01T19:17:57.283Z,97937.88
2022-11-01T19:20:25.547Z,97939.31
2022-11-01T19:22:56.935Z,97936.38
2022-11-01T19:25:25.509Z,97938.97
2022-11-01T19:27:55.145Z,97938.72
2022-11-01T19:30:24.032Z,97935.69
2022-11-01T19:32:53.855Z,97932.94
2022-11-01T19:35:22.182Z,97942.91
2022-11-01T19:37:50.194Z,97943.28
2022-11-01T19:40:27.626Z,97945.72
2022-11-01T19:42:57.997Z,97941.91
2022-11-01T19:45:27.695Z,97942.72
2022-11-01T19:47:56.314Z,97940.56
2022-11-01T19:50:24.432Z,97947.72
2022-11-01T19:52:52.197Z,97944.88
2022-11-01T19:55:40.406Z,97945.13
2022-11-01T19:58:29.935Z,97948.81
2022-11-01T20:01:11.262Z,97954.47
2022-11-01T20:03:41.095Z,97956.22
2022-11-01T20:06:16.195Z,97949.44
2022-11-01T20:08:43.661Z,97960.88
2022-11-01T20:11:16.777Z,97963.19
2022-11-01T20:13:44.036Z,97961.13
2022-11-01T20:16:11.226Z,97962.38
2022-11-01T20:18:40.670Z,97963.31
2022-11-01T20:21:08.044Z,97961.00
2022-11-01T20:23:35.169Z,97966.69
2022-11-01T20:26:02.442Z,97977.13
2022-11-01T20:28:29.682Z,97972.63
2022-11-01T20:30:56.892Z,97970.44
2022-11-01T20:33:24.043Z,97977.91
2022-11-01T20:35:53.007Z,97974.69
2022-11-01T20:40:52.206Z,97977.38
2022-11-01T20:43:20.184Z,97971.59
2022-11-01T20:45:47.550Z,97971.72
2022-11-01T20:48:14.724Z,97974.00
2022-11-01T20:50:41.968Z,97981.41
2022-11-01T20:53:11.263Z,97979.56
2022-11-01T20:55:38.884Z,97980.00
2022-11-01T20:58:06.463Z,97978.50
2022-11-01T21:00:33.964Z,97984.28
2022-11-01T21:03:01.952Z,97987.38
2022-11-01T21:05:29.716Z,97984.28
2022-11-01T21:07:58.346Z,97993.28
2022-11-01T21:10:34.166Z,97984.88
2022-11-01T21:13:01.828Z,97983.22
2022-11-01T21:15:38.662Z,97986.94
2022-11-01T21:18:34.096Z,97989.47
2022-11-01T21:21:25.269Z,97998.09
2022-11-01T21:23:52.573Z,98004.53
